sensor_id;sensor_type;location;lat;lon;timestamp;P1;durP1;ratioP1;P2;durP2;ratioP2
46971;SDS011;32722;43.486;2.766;2022-07-12T00:02:02;4.57;;;3.75;;
46971;SDS011;32722;43.486;2.766;2022-07-12T00:04:28;4.00;;;3.60;;
46971;SDS011;32722;43.486;2.766;2022-07-12T00:06:54;6.32;;;4.18;;
46971;SDS011;32722;43.486;2.766;2022-07-12T00:09:20;5.30;;;4.00;;
46971;SDS011;32722;43.486;2.766;2022-07-12T00:11:46;6.50;;;3.67;;
46971;SDS011;32722;43.486;2.766;2022-07-12T00:14:13;5.47;;;4.32;;
46971;SDS011;32722;43.486;2.766;2022-07-12T00:16:39;4.20;;;3.90;;
46971;SDS011;32722;43.486;2.766;2022-07-12T00:19:05;5.90;;;4.03;;
46971;SDS011;32722;43.486;2.766;2022-07-12T00:21:32;4.95;;;3.78;;
46971;SDS011;32722;43.486;2.766;2022-07-12T00:23:58;4.35;;;3.95;;
46971;SDS011;32722;43.486;2.766;2022-07-12T00:26:24;4.80;;;4.03;;
46971;SDS011;32722;43.486;2.766;2022-07-12T00:28:50;5.85;;;4.50;;
46971;SDS011;32722;43.486;2.766;2022-07-12T00:31:17;6.80;;;4.20;;
46971;SDS011;32722;43.486;2.766;2022-07-12T00:33:43;5.30;;;4.50;;
46971;SDS011;32722;43.486;2.766;2022-07-12T00:36:09;6.32;;;4.38;;
46971;SDS011;32722;43.486;2.766;2022-07-12T00:38:35;4.53;;;4.10;;
46971;SDS011;32722;43.486;2.766;2022-07-12T00:41:02;6.38;;;3.90;;
46971;SDS011;32722;43.486;2.766;2022-07-12T00:43:28;6.40;;;4.25;;
46971;SDS011;32722;43.486;2.766;2022-07-12T00:45:54;5.25;;;4.25;;
46971;SDS011;32722;43.486;2.766;2022-07-12T00:48:20;4.68;;;4.13;;
46971;SDS011;32722;43.486;2.766;2022-07-12T00:50:47;4.00;;;3.70;;
46971;SDS011;32722;43.486;2.766;2022-07-12T00:53:13;5.95;;;4.55;;
46971;SDS011;32722;43.486;2.766;2022-07-12T00:55:41;4.38;;;3.97;;
46971;SDS011;32722;43.486;2.766;2022-07-12T00:58:07;4.70;;;4.30;;
46971;SDS011;32722;43.486;2.766;2022-07-12T01:00:34;4.68;;;4.03;;
46971;SDS011;32722;43.486;2.766;2022-07-12T01:03:00;5.03;;;4.38;;
46971;SDS011;32722;43.486;2.766;2022-07-12T01:05:27;6.53;;;4.55;;
46971;SDS011;32722;43.486;2.766;2022-07-12T01:07:54;5.07;;;4.20;;
46971;SDS011;32722;43.486;2.766;2022-07-12T01:10:20;5.00;;;4.50;;
46971;SDS011;32722;43.486;2.766;2022-07-12T01:12:47;5.55;;;4.18;;
46971;SDS011;32722;43.486;2.766;2022-07-12T01:15:13;6.93;;;4.35;;
46971;SDS011;32722;43.486;2.766;2022-07-12T01:17:39;5.75;;;4.05;;
46971;SDS011;32722;43.486;2.766;2022-07-12T01:20:05;5.22;;;4.68;;
46971;SDS011;32722;43.486;2.766;2022-07-12T01:22:33;7.28;;;4.55;;
46971;SDS011;32722;43.486;2.766;2022-07-12T01:25:00;5.13;;;4.53;;
46971;SDS011;32722;43.486;2.766;2022-07-12T01:27:27;4.75;;;4.35;;
46971;SDS011;32722;43.486;2.766;2022-07-12T01:29:54;5.30;;;4.30;;
46971;SDS011;32722;43.486;2.766;2022-07-12T01:32:20;7.00;;;4.70;;
46971;SDS011;32722;43.486;2.766;2022-07-12T01:34:50;5.82;;;4.20;;
46971;SDS011;32722;43.486;2.766;2022-07-12T01:37:17;6.78;;;4.60;;
46971;SDS011;32722;43.486;2.766;2022-07-12T01:39:43;5.20;;;4.35;;
46971;SDS011;32722;43.486;2.766;2022-07-12T01:42:10;6.53;;;4.85;;
46971;SDS011;32722;43.486;2.766;2022-07-12T01:44:36;7.47;;;4.70;;
46971;SDS011;32722;43.486;2.766;2022-07-12T01:47:02;8.63;;;4.53;;
46971;SDS011;32722;43.486;2.766;2022-07-12T01:49:28;5.18;;;4.50;;
46971;SDS011;32722;43.486;2.766;2022-07-12T01:51:55;7.05;;;4.40;;
46971;SDS011;32722;43.486;2.766;2022-07-12T01:54:21;4.88;;;4.38;;
46971;SDS011;32722;43.486;2.766;2022-07-12T01:56:49;6.85;;;4.90;;
46971;SDS011;32722;43.486;2.766;2022-07-12T01:59:15;21.25;;;5.30;;
46971;SDS011;32722;43.486;2.766;2022-07-12T02:01:41;5.10;;;4.60;;
46971;SDS011;32722;43.486;2.766;2022-07-12T02:04:08;8.20;;;5.18;;
46971;SDS011;32722;43.486;2.766;2022-07-12T02:06:35;5.53;;;4.65;;
46971;SDS011;32722;43.486;2.766;2022-07-12T02:09:01;5.50;;;4.45;;
46971;SDS011;32722;43.486;2.766;2022-07-12T02:11:27;5.25;;;4.75;;
46971;SDS011;32722;43.486;2.766;2022-07-12T02:13:53;5.45;;;4.63;;
46971;SDS011;32722;43.486;2.766;2022-07-12T02:16:19;6.60;;;4.88;;
46971;SDS011;32722;43.486;2.766;2022-07-12T02:18:46;5.72;;;5.13;;
46971;SDS011;32722;43.486;2.766;2022-07-12T02:21:12;5.18;;;4.68;;
46971;SDS011;32722;43.486;2.766;2022-07-12T02:23:38;4.93;;;4.53;;
46971;SDS011;32722;43.486;2.766;2022-07-12T02:26:04;5.68;;;4.60;;
46971;SDS011;32722;43.486;2.766;2022-07-12T02:28:31;5.18;;;4.57;;
46971;SDS011;32722;43.486;2.766;2022-07-12T02:30:57;6.97;;;4.88;;
46971;SDS011;32722;43.486;2.766;2022-07-12T02:33:24;6.63;;;4.90;;
46971;SDS011;32722;43.486;2.766;2022-07-12T02:35:50;6.57;;;5.57;;
46971;SDS011;32722;43.486;2.766;2022-07-12T02:38:16;5.55;;;5.03;;
46971;SDS011;32722;43.486;2.766;2022-07-12T02:40:45;5.40;;;4.90;;
46971;SDS011;32722;43.486;2.766;2022-07-12T02:43:26;4.95;;;4.55;;
46971;SDS011;32722;43.486;2.766;2022-07-12T02:45:52;6.10;;;4.85;;
46971;SDS011;32722;43.486;2.766;2022-07-12T02:48:19;6.93;;;5.65;;
46971;SDS011;32722;43.486;2.766;2022-07-12T02:50:45;9.68;;;5.10;;
46971;SDS011;32722;43.486;2.766;2022-07-12T02:53:12;5.55;;;5.05;;
46971;SDS011;32722;43.486;2.766;2022-07-12T02:55:38;5.85;;;4.93;;
46971;SDS011;32722;43.486;2.766;2022-07-12T02:58:05;5.57;;;5.18;;
46971;SDS011;32722;43.486;2.766;2022-07-12T03:00:31;6.53;;;5.00;;
46971;SDS011;32722;43.486;2.766;2022-07-12T03:02:58;8.55;;;5.20;;
46971;SDS011;32722;43.486;2.766;2022-07-12T03:05:24;5.82;;;5.22;;
46971;SDS011;32722;43.486;2.766;2022-07-12T03:07:50;5.40;;;4.90;;
46971;SDS011;32722;43.486;2.766;2022-07-12T03:10:16;8.38;;;5.18;;
46971;SDS011;32722;43.486;2.766;2022-07-12T03:12:42;5.60;;;4.63;;
46971;SDS011;32722;43.486;2.766;2022-07-12T03:15:08;5.72;;;4.90;;
46971;SDS011;32722;43.486;2.766;2022-07-12T03:17:34;5.53;;;5.05;;
46971;SDS011;32722;43.486;2.766;2022-07-12T03:20:01;5.43;;;4.93;;
46971;SDS011;32722;43.486;2.766;2022-07-12T03:22:29;5.55;;;5.15;;
46971;SDS011;32722;43.486;2.766;2022-07-12T03:24:55;5.30;;;4.82;;
46971;SDS011;32722;43.486;2.766;2022-07-12T03:27:21;5.25;;;4.82;;
46971;SDS011;32722;43.486;2.766;2022-07-12T03:29:47;8.40;;;5.00;;
46971;SDS011;32722;43.486;2.766;2022-07-12T03:32:13;5.38;;;4.88;;
46971;SDS011;32722;43.486;2.766;2022-07-12T03:34:40;8.35;;;4.97;;
46971;SDS011;32722;43.486;2.766;2022-07-12T03:37:06;5.50;;;5.00;;
46971;SDS011;32722;43.486;2.766;2022-07-12T03:39:32;6.47;;;5.03;;
46971;SDS011;32722;43.486;2.766;2022-07-12T03:41:58;6.22;;;5.30;;
46971;SDS011;32722;43.486;2.766;2022-07-12T03:44:24;5.55;;;5.15;;
46971;SDS011;32722;43.486;2.766;2022-07-12T03:46:50;8.02;;;5.70;;
46971;SDS011;32722;43.486;2.766;2022-07-12T03:49:16;5.55;;;5.10;;
46971;SDS011;32722;43.486;2.766;2022-07-12T03:51:42;5.85;;;5.25;;
46971;SDS011;32722;43.486;2.766;2022-07-12T03:54:08;5.45;;;4.95;;
46971;SDS011;32722;43.486;2.766;2022-07-12T03:56:35;5.65;;;5.20;;
46971;SDS011;32722;43.486;2.766;2022-07-12T03:59:20;5.53;;;5.03;;
46971;SDS011;32722;43.486;2.766;2022-07-12T04:01:46;6.00;;;5.20;;
46971;SDS011;32722;43.486;2.766;2022-07-12T04:04:12;7.88;;;5.30;;
46971;SDS011;32722;43.486;2.766;2022-07-12T04:06:38;7.15;;;5.50;;
46971;SDS011;32722;43.486;2.766;2022-07-12T04:09:08;6.30;;;5.65;;
46971;SDS011;32722;43.486;2.766;2022-07-12T04:11:34;7.05;;;5.35;;
46971;SDS011;32722;43.486;2.766;2022-07-12T04:14:00;5.88;;;5.38;;
46971;SDS011;32722;43.486;2.766;2022-07-12T04:16:26;6.80;;;5.30;;
46971;SDS011;32722;43.486;2.766;2022-07-12T04:18:54;5.75;;;5.18;;
46971;SDS011;32722;43.486;2.766;2022-07-12T04:21:21;6.15;;;5.22;;
46971;SDS011;32722;43.486;2.766;2022-07-12T04:23:47;6.68;;;5.97;;
46971;SDS011;32722;43.486;2.766;2022-07-12T04:26:13;6.13;;;5.55;;
46971;SDS011;32722;43.486;2.766;2022-07-12T04:28:40;7.18;;;5.63;;
46971;SDS011;32722;43.486;2.766;2022-07-12T04:31:06;5.70;;;5.20;;
46971;SDS011;32722;43.486;2.766;2022-07-12T04:33:32;7.97;;;5.57;;
46971;SDS011;32722;43.486;2.766;2022-07-12T04:35:59;5.85;;;5.00;;
46971;SDS011;32722;43.486;2.766;2022-07-12T04:38:25;7.85;;;5.70;;
46971;SDS011;32722;43.486;2.766;2022-07-12T04:40:51;6.70;;;5.25;;
46971;SDS011;32722;43.486;2.766;2022-07-12T04:43:17;8.30;;;5.32;;
46971;SDS011;32722;43.486;2.766;2022-07-12T04:45:44;9.05;;;5.28;;
46971;SDS011;32722;43.486;2.766;2022-07-12T04:48:10;6.35;;;5.85;;
46971;SDS011;32722;43.486;2.766;2022-07-12T04:50:37;5.70;;;5.20;;
46971;SDS011;32722;43.486;2.766;2022-07-12T04:53:03;5.75;;;5.15;;
46971;SDS011;32722;43.486;2.766;2022-07-12T04:55:29;7.95;;;4.97;;
46971;SDS011;32722;43.486;2.766;2022-07-12T04:57:55;6.05;;;5.18;;
46971;SDS011;32722;43.486;2.766;2022-07-12T05:00:21;6.22;;;5.28;;
46971;SDS011;32722;43.486;2.766;2022-07-12T05:02:48;6.28;;;5.68;;
46971;SDS011;32722;43.486;2.766;2022-07-12T05:05:14;6.07;;;5.57;;
46971;SDS011;32722;43.486;2.766;2022-07-12T05:07:40;7.07;;;5.60;;
46971;SDS011;32722;43.486;2.766;2022-07-12T05:10:07;9.55;;;5.35;;
46971;SDS011;32722;43.486;2.766;2022-07-12T05:12:36;5.35;;;4.95;;
46971;SDS011;32722;43.486;2.766;2022-07-12T05:15:03;8.43;;;5.88;;
46971;SDS011;32722;43.486;2.766;2022-07-12T05:17:29;5.53;;;5.03;;
46971;SDS011;32722;43.486;2.766;2022-07-12T05:19:55;6.10;;;5.35;;
46971;SDS011;32722;43.486;2.766;2022-07-12T05:22:22;5.95;;;5.35;;
46971;SDS011;32722;43.486;2.766;2022-07-12T05:24:48;5.30;;;4.65;;
46971;SDS011;32722;43.486;2.766;2022-07-12T05:27:14;9.18;;;5.18;;
46971;SDS011;32722;43.486;2.766;2022-07-12T05:29:41;5.43;;;4.60;;
46971;SDS011;32722;43.486;2.766;2022-07-12T05:32:07;6.35;;;4.78;;
46971;SDS011;32722;43.486;2.766;2022-07-12T05:34:33;4.50;;;4.13;;
46971;SDS011;32722;43.486;2.766;2022-07-12T05:36:59;5.18;;;4.68;;
46971;SDS011;32722;43.486;2.766;2022-07-12T05:39:25;4.65;;;4.20;;
46971;SDS011;32722;43.486;2.766;2022-07-12T05:41:52;5.78;;;4.45;;
46971;SDS011;32722;43.486;2.766;2022-07-12T05:44:18;5.43;;;4.30;;
46971;SDS011;32722;43.486;2.766;2022-07-12T05:46:45;5.93;;;4.07;;
46971;SDS011;32722;43.486;2.766;2022-07-12T05:49:11;12.57;;;4.38;;
46971;SDS011;32722;43.486;2.766;2022-07-12T05:51:38;4.97;;;3.58;;
46971;SDS011;32722;43.486;2.766;2022-07-12T05:54:23;5.93;;;3.28;;
46971;SDS011;32722;43.486;2.766;2022-07-12T05:56:49;5.63;;;3.35;;
46971;SDS011;32722;43.486;2.766;2022-07-12T05:59:16;5.05;;;3.00;;
46971;SDS011;32722;43.486;2.766;2022-07-12T06:01:42;4.13;;;3.10;;
46971;SDS011;32722;43.486;2.766;2022-07-12T06:04:08;8.98;;;3.17;;
46971;SDS011;32722;43.486;2.766;2022-07-12T06:06:34;5.63;;;3.40;;
46971;SDS011;32722;43.486;2.766;2022-07-12T06:09:01;3.97;;;3.13;;
46971;SDS011;32722;43.486;2.766;2022-07-12T06:11:27;5.50;;;2.92;;
46971;SDS011;32722;43.486;2.766;2022-07-12T06:13:53;4.97;;;3.00;;
46971;SDS011;32722;43.486;2.766;2022-07-12T06:16:19;4.70;;;3.00;;
46971;SDS011;32722;43.486;2.766;2022-07-12T06:18:45;3.38;;;2.83;;
46971;SDS011;32722;43.486;2.766;2022-07-12T06:21:12;4.50;;;3.00;;
46971;SDS011;32722;43.486;2.766;2022-07-12T06:23:38;2.83;;;2.63;;
46971;SDS011;32722;43.486;2.766;2022-07-12T06:26:04;4.07;;;2.90;;
46971;SDS011;32722;43.486;2.766;2022-07-12T06:28:30;3.63;;;2.90;;
46971;SDS011;32722;43.486;2.766;2022-07-12T06:30:57;3.25;;;2.40;;
46971;SDS011;32722;43.486;2.766;2022-07-12T06:33:23;4.30;;;2.40;;
46971;SDS011;32722;43.486;2.766;2022-07-12T06:35:49;4.35;;;2.85;;
46971;SDS011;32722;43.486;2.766;2022-07-12T06:38:16;3.78;;;2.85;;
46971;SDS011;32722;43.486;2.766;2022-07-12T06:40:42;3.60;;;2.60;;
46971;SDS011;32722;43.486;2.766;2022-07-12T06:43:11;2.75;;;2.55;;
46971;SDS011;32722;43.486;2.766;2022-07-12T06:48:04;7.93;;;2.80;;
46971;SDS011;32722;43.486;2.766;2022-07-12T06:50:31;5.25;;;2.75;;
46971;SDS011;32722;43.486;2.766;2022-07-12T06:52:57;8.07;;;3.00;;
46971;SDS011;32722;43.486;2.766;2022-07-12T06:55:24;4.45;;;2.50;;
46971;SDS011;32722;43.486;2.766;2022-07-12T06:57:50;5.88;;;2.70;;
46971;SDS011;32722;43.486;2.766;2022-07-12T07:00:16;3.22;;;2.50;;
46971;SDS011;32722;43.486;2.766;2022-07-12T07:02:42;5.70;;;2.50;;
46971;SDS011;32722;43.486;2.766;2022-07-12T07:05:08;5.35;;;2.58;;
46971;SDS011;32722;43.486;2.766;2022-07-12T07:07:36;4.45;;;2.55;;
46971;SDS011;32722;43.486;2.766;2022-07-12T07:10:02;3.97;;;2.55;;
46971;SDS011;32722;43.486;2.766;2022-07-12T07:12:28;4.65;;;2.67;;
46971;SDS011;32722;43.486;2.766;2022-07-12T07:14:54;4.13;;;2.58;;
46971;SDS011;32722;43.486;2.766;2022-07-12T07:17:21;4.25;;;2.30;;
46971;SDS011;32722;43.486;2.766;2022-07-12T07:19:47;3.35;;;2.45;;
46971;SDS011;32722;43.486;2.766;2022-07-12T07:22:13;2.33;;;2.00;;
46971;SDS011;32722;43.486;2.766;2022-07-12T07:24:39;2.67;;;2.28;;
46971;SDS011;32722;43.486;2.766;2022-07-12T07:27:06;5.10;;;2.30;;
46971;SDS011;32722;43.486;2.766;2022-07-12T07:29:32;2.65;;;2.30;;
46971;SDS011;32722;43.486;2.766;2022-07-12T07:32:18;3.83;;;2.40;;
46971;SDS011;32722;43.486;2.766;2022-07-12T07:34:44;5.05;;;2.40;;
46971;SDS011;32722;43.486;2.766;2022-07-12T07:37:10;4.97;;;2.45;;
46971;SDS011;32722;43.486;2.766;2022-07-12T07:39:36;5.68;;;2.40;;
46971;SDS011;32722;43.486;2.766;2022-07-12T07:42:03;4.38;;;2.65;;
46971;SDS011;32722;43.486;2.766;2022-07-12T07:44:29;4.25;;;2.25;;
46971;SDS011;32722;43.486;2.766;2022-07-12T07:46:55;8.25;;;2.60;;
46971;SDS011;32722;43.486;2.766;2022-07-12T07:49:21;3.38;;;2.38;;
46971;SDS011;32722;43.486;2.766;2022-07-12T07:51:48;4.50;;;2.60;;
46971;SDS011;32722;43.486;2.766;2022-07-12T07:54:14;6.93;;;2.17;;
46971;SDS011;32722;43.486;2.766;2022-07-12T07:56:40;4.40;;;2.05;;
46971;SDS011;32722;43.486;2.766;2022-07-12T07:59:06;6.65;;;2.28;;
46971;SDS011;32722;43.486;2.766;2022-07-12T08:01:33;3.15;;;2.20;;
46971;SDS011;32722;43.486;2.766;2022-07-12T08:04:10;2.75;;;2.10;;
46971;SDS011;32722;43.486;2.766;2022-07-12T08:06:37;5.35;;;2.13;;
46971;SDS011;32722;43.486;2.766;2022-07-12T08:09:03;2.88;;;1.80;;
46971;SDS011;32722;43.486;2.766;2022-07-12T08:11:30;2.45;;;1.50;;
46971;SDS011;32722;43.486;2.766;2022-07-12T08:13:57;1.92;;;1.50;;
46971;SDS011;32722;43.486;2.766;2022-07-12T08:16:23;5.13;;;1.50;;
46971;SDS011;32722;43.486;2.766;2022-07-12T08:18:49;1.63;;;1.50;;
46971;SDS011;32722;43.486;2.766;2022-07-12T08:21:15;1.70;;;1.50;;
46971;SDS011;32722;43.486;2.766;2022-07-12T08:23:41;3.20;;;1.70;;
46971;SDS011;32722;43.486;2.766;2022-07-12T08:26:07;5.13;;;1.70;;
46971;SDS011;32722;43.486;2.766;2022-07-12T08:28:33;2.58;;;1.52;;
46971;SDS011;32722;43.486;2.766;2022-07-12T08:31:00;2.40;;;1.73;;
46971;SDS011;32722;43.486;2.766;2022-07-12T08:33:26;4.93;;;1.50;;
46971;SDS011;32722;43.486;2.766;2022-07-12T08:35:52;5.90;;;2.00;;
46971;SDS011;32722;43.486;2.766;2022-07-12T08:38:18;5.97;;;1.85;;
46971;SDS011;32722;43.486;2.766;2022-07-12T08:40:45;2.33;;;1.60;;
46971;SDS011;32722;43.486;2.766;2022-07-12T08:43:11;2.00;;;1.65;;
46971;SDS011;32722;43.486;2.766;2022-07-12T08:45:38;4.47;;;2.10;;
46971;SDS011;32722;43.486;2.766;2022-07-12T08:48:05;4.20;;;1.63;;
46971;SDS011;32722;43.486;2.766;2022-07-12T08:50:32;4.40;;;1.50;;
46971;SDS011;32722;43.486;2.766;2022-07-12T08:52:58;5.78;;;1.80;;
46971;SDS011;32722;43.486;2.766;2022-07-12T08:55:25;3.08;;;1.73;;
46971;SDS011;32722;43.486;2.766;2022-07-12T08:57:54;7.10;;;1.80;;
46971;SDS011;32722;43.486;2.766;2022-07-12T09:00:20;7.20;;;1.90;;
46971;SDS011;32722;43.486;2.766;2022-07-12T09:05:14;3.80;;;2.00;;
46971;SDS011;32722;43.486;2.766;2022-07-12T09:07:41;3.28;;;1.70;;
46971;SDS011;32722;43.486;2.766;2022-07-12T09:10:09;12.23;;;2.22;;
46971;SDS011;32722;43.486;2.766;2022-07-12T09:12:35;7.03;;;1.83;;
46971;SDS011;32722;43.486;2.766;2022-07-12T09:15:18;6.25;;;1.67;;
46971;SDS011;32722;43.486;2.766;2022-07-12T09:17:56;4.22;;;1.65;;
46971;SDS011;32722;43.486;2.766;2022-07-12T09:20:27;5.07;;;1.85;;
46971;SDS011;32722;43.486;2.766;2022-07-12T09:25:19;4.85;;;1.70;;
46971;SDS011;32722;43.486;2.766;2022-07-12T09:27:56;4.88;;;1.95;;
46971;SDS011;32722;43.486;2.766;2022-07-12T09:30:24;3.33;;;1.70;;
46971;SDS011;32722;43.486;2.766;2022-07-12T09:32:50;5.93;;;1.60;;
46971;SDS011;32722;43.486;2.766;2022-07-12T09:35:36;4.18;;;1.65;;
46971;SDS011;32722;43.486;2.766;2022-07-12T09:38:20;3.63;;;1.70;;
46971;SDS011;32722;43.486;2.766;2022-07-12T09:40:47;6.90;;;1.77;;
46971;SDS011;32722;43.486;2.766;2022-07-12T09:43:14;4.70;;;1.70;;
46971;SDS011;32722;43.486;2.766;2022-07-12T09:45:40;6.05;;;1.77;;
46971;SDS011;32722;43.486;2.766;2022-07-12T09:48:12;4.97;;;1.95;;
46971;SDS011;32722;43.486;2.766;2022-07-12T09:50:42;3.30;;;1.60;;
46971;SDS011;32722;43.486;2.766;2022-07-12T09:53:11;2.42;;;1.88;;
46971;SDS011;32722;43.486;2.766;2022-07-12T09:55:40;4.18;;;1.95;;
46971;SDS011;32722;43.486;2.766;2022-07-12T09:58:07;4.63;;;1.80;;
46971;SDS011;32722;43.486;2.766;2022-07-12T10:00:34;2.22;;;1.65;;
46971;SDS011;32722;43.486;2.766;2022-07-12T10:03:01;6.60;;;1.80;;
46971;SDS011;32722;43.486;2.766;2022-07-12T10:05:29;2.00;;;1.80;;
46971;SDS011;32722;43.486;2.766;2022-07-12T10:07:55;3.20;;;1.75;;
46971;SDS011;32722;43.486;2.766;2022-07-12T10:10:22;4.20;;;1.83;;
46971;SDS011;32722;43.486;2.766;2022-07-12T10:12:48;2.05;;;1.75;;
46971;SDS011;32722;43.486;2.766;2022-07-12T10:15:15;3.40;;;1.88;;
46971;SDS011;32722;43.486;2.766;2022-07-12T10:17:53;5.72;;;1.85;;
46971;SDS011;32722;43.486;2.766;2022-07-12T10:20:22;3.35;;;2.10;;
46971;SDS011;32722;43.486;2.766;2022-07-12T10:22:49;2.60;;;1.80;;
46971;SDS011;32722;43.486;2.766;2022-07-12T10:27:51;4.82;;;2.70;;
46971;SDS011;32722;43.486;2.766;2022-07-12T10:30:18;4.00;;;2.10;;
46971;SDS011;32722;43.486;2.766;2022-07-12T10:32:45;4.22;;;2.42;;
46971;SDS011;32722;43.486;2.766;2022-07-12T10:35:13;2.85;;;2.10;;
46971;SDS011;32722;43.486;2.766;2022-07-12T10:37:39;5.22;;;1.98;;
46971;SDS011;32722;43.486;2.766;2022-07-12T10:42:38;2.65;;;2.10;;
46971;SDS011;32722;43.486;2.766;2022-07-12T10:45:12;6.03;;;2.38;;
46971;SDS011;32722;43.486;2.766;2022-07-12T10:47:57;5.13;;;2.30;;
46971;SDS011;32722;43.486;2.766;2022-07-12T10:58:39;4.05;;;2.33;;
46971;SDS011;32722;43.486;2.766;2022-07-12T11:01:12;4.47;;;2.17;;
46971;SDS011;32722;43.486;2.766;2022-07-12T11:06:06;2.35;;;2.15;;
46971;SDS011;32722;43.486;2.766;2022-07-12T11:08:32;7.95;;;2.47;;
46971;SDS011;32722;43.486;2.766;2022-07-12T11:11:12;4.70;;;1.90;;
46971;SDS011;32722;43.486;2.766;2022-07-12T11:13:38;3.03;;;2.13;;
46971;SDS011;32722;43.486;2.766;2022-07-12T11:16:05;2.00;;;1.88;;
46971;SDS011;32722;43.486;2.766;2022-07-12T11:18:31;5.93;;;2.58;;
46971;SDS011;32722;43.486;2.766;2022-07-12T11:20:59;2.83;;;1.85;;
46971;SDS011;32722;43.486;2.766;2022-07-12T11:23:25;4.53;;;2.20;;
46971;SDS011;32722;43.486;2.766;2022-07-12T11:26:10;4.25;;;2.33;;
46971;SDS011;32722;43.486;2.766;2022-07-12T11:28:36;3.15;;;1.90;;
46971;SDS011;32722;43.486;2.766;2022-07-12T11:31:13;6.72;;;1.75;;
46971;SDS011;32722;43.486;2.766;2022-07-12T11:33:40;4.07;;;2.28;;
46971;SDS011;32722;43.486;2.766;2022-07-12T11:36:11;3.55;;;2.20;;
46971;SDS011;32722;43.486;2.766;2022-07-12T11:38:38;3.38;;;1.88;;
46971;SDS011;32722;43.486;2.766;2022-07-12T11:41:06;3.80;;;2.30;;
46971;SDS011;32722;43.486;2.766;2022-07-12T11:43:32;4.85;;;2.28;;
46971;SDS011;32722;43.486;2.766;2022-07-12T11:45:59;4.28;;;2.13;;
46971;SDS011;32722;43.486;2.766;2022-07-12T11:48:26;3.17;;;2.20;;
46971;SDS011;32722;43.486;2.766;2022-07-12T11:50:54;2.58;;;1.75;;
46971;SDS011;32722;43.486;2.766;2022-07-12T11:53:22;2.88;;;2.03;;
46971;SDS011;32722;43.486;2.766;2022-07-12T11:55:49;3.67;;;2.03;;
46971;SDS011;32722;43.486;2.766;2022-07-12T11:58:16;3.63;;;2.40;;
46971;SDS011;32722;43.486;2.766;2022-07-12T12:00:42;4.60;;;2.17;;
46971;SDS011;32722;43.486;2.766;2022-07-12T12:03:09;4.78;;;2.15;;
46971;SDS011;32722;43.486;2.766;2022-07-12T12:05:36;2.53;;;2.00;;
46971;SDS011;32722;43.486;2.766;2022-07-12T12:08:03;3.65;;;2.10;;
46971;SDS011;32722;43.486;2.766;2022-07-12T12:10:29;4.07;;;2.20;;
46971;SDS011;32722;43.486;2.766;2022-07-12T12:12:56;3.17;;;2.00;;
46971;SDS011;32722;43.486;2.766;2022-07-12T12:15:23;3.83;;;1.92;;
46971;SDS011;32722;43.486;2.766;2022-07-12T12:22:49;2.53;;;2.10;;
46971;SDS011;32722;43.486;2.766;2022-07-12T12:25:16;2.00;;;1.88;;
46971;SDS011;32722;43.486;2.766;2022-07-12T12:30:08;4.65;;;2.03;;
46971;SDS011;32722;43.486;2.766;2022-07-12T12:32:44;3.63;;;1.92;;
46971;SDS011;32722;43.486;2.766;2022-07-12T12:35:13;3.67;;;2.25;;
46971;SDS011;32722;43.486;2.766;2022-07-12T12:37:39;3.70;;;1.98;;
46971;SDS011;32722;43.486;2.766;2022-07-12T12:40:06;5.82;;;2.10;;
46971;SDS011;32722;43.486;2.766;2022-07-12T12:42:32;21.50;;;3.45;;
46971;SDS011;32722;43.486;2.766;2022-07-12T12:44:59;2.00;;;1.90;;
46971;SDS011;32722;43.486;2.766;2022-07-12T12:47:25;2.63;;;1.92;;
46971;SDS011;32722;43.486;2.766;2022-07-12T12:49:58;5.05;;;2.25;;
46971;SDS011;32722;43.486;2.766;2022-07-12T12:52:30;3.63;;;1.80;;
46971;SDS011;32722;43.486;2.766;2022-07-12T12:54:57;1.20;;;1.10;;
46971;SDS011;32722;43.486;2.766;2022-07-12T12:57:23;3.00;;;1.20;;
46971;SDS011;32722;43.486;2.766;2022-07-12T12:59:51;4.95;;;1.27;;
46971;SDS011;32722;43.486;2.766;2022-07-12T13:02:17;3.15;;;1.20;;
46971;SDS011;32722;43.486;2.766;2022-07-12T13:04:45;4.28;;;1.50;;
46971;SDS011;32722;43.486;2.766;2022-07-12T13:07:11;2.90;;;1.50;;
46971;SDS011;32722;43.486;2.766;2022-07-12T13:09:37;2.78;;;1.25;;
46971;SDS011;32722;43.486;2.766;2022-07-12T13:12:04;1.30;;;1.20;;
46971;SDS011;32722;43.486;2.766;2022-07-12T13:14:30;1.30;;;1.20;;
46971;SDS011;32722;43.486;2.766;2022-07-12T13:16:56;1.52;;;1.17;;
46971;SDS011;32722;43.486;2.766;2022-07-12T13:19:22;1.63;;;1.35;;
46971;SDS011;32722;43.486;2.766;2022-07-12T13:21:50;2.28;;;1.23;;
46971;SDS011;32722;43.486;2.766;2022-07-12T13:24:16;1.45;;;1.20;;
46971;SDS011;32722;43.486;2.766;2022-07-12T13:26:42;4.07;;;1.40;;
46971;SDS011;32722;43.486;2.766;2022-07-12T13:29:08;2.90;;;1.35;;
46971;SDS011;32722;43.486;2.766;2022-07-12T13:31:35;2.55;;;1.20;;
46971;SDS011;32722;43.486;2.766;2022-07-12T13:34:01;2.33;;;1.80;;
46971;SDS011;32722;43.486;2.766;2022-07-12T13:36:31;4.60;;;1.75;;
46971;SDS011;32722;43.486;2.766;2022-07-12T13:38:57;12.20;;;1.42;;
46971;SDS011;32722;43.486;2.766;2022-07-12T13:41:43;1.30;;;1.02;;
46971;SDS011;32722;43.486;2.766;2022-07-12T13:44:09;2.10;;;1.10;;
46971;SDS011;32722;43.486;2.766;2022-07-12T13:46:35;2.55;;;1.20;;
46971;SDS011;32722;43.486;2.766;2022-07-12T13:49:01;1.27;;;1.08;;
46971;SDS011;32722;43.486;2.766;2022-07-12T13:51:27;1.00;;;1.00;;
46971;SDS011;32722;43.486;2.766;2022-07-12T13:53:54;2.38;;;1.33;;
46971;SDS011;32722;43.486;2.766;2022-07-12T13:56:20;3.47;;;1.33;;
46971;SDS011;32722;43.486;2.766;2022-07-12T13:58:47;3.45;;;1.20;;
46971;SDS011;32722;43.486;2.766;2022-07-12T14:01:13;2.17;;;1.20;;
46971;SDS011;32722;43.486;2.766;2022-07-12T14:03:39;1.20;;;1.10;;
46971;SDS011;32722;43.486;2.766;2022-07-12T14:06:05;19.80;;;2.00;;
46971;SDS011;32722;43.486;2.766;2022-07-12T14:08:31;4.60;;;1.60;;
46971;SDS011;32722;43.486;2.766;2022-07-12T14:10:57;7.32;;;1.63;;
46971;SDS011;32722;43.486;2.766;2022-07-12T14:13:24;2.50;;;1.15;;
46971;SDS011;32722;43.486;2.766;2022-07-12T14:15:51;1.38;;;1.27;;
46971;SDS011;32722;43.486;2.766;2022-07-12T14:18:17;2.95;;;1.20;;
46971;SDS011;32722;43.486;2.766;2022-07-12T14:20:43;2.08;;;1.52;;
46971;SDS011;32722;43.486;2.766;2022-07-12T14:23:10;2.45;;;1.45;;
46971;SDS011;32722;43.486;2.766;2022-07-12T14:25:38;2.88;;;1.30;;
46971;SDS011;32722;43.486;2.766;2022-07-12T14:28:04;3.92;;;1.38;;
46971;SDS011;32722;43.486;2.766;2022-07-12T14:30:31;4.43;;;1.20;;
46971;SDS011;32722;43.486;2.766;2022-07-12T14:32:57;3.80;;;1.30;;
46971;SDS011;32722;43.486;2.766;2022-07-12T14:35:23;3.40;;;1.60;;
46971;SDS011;32722;43.486;2.766;2022-07-12T14:37:49;3.97;;;1.20;;
46971;SDS011;32722;43.486;2.766;2022-07-12T14:40:15;2.85;;;1.30;;
46971;SDS011;32722;43.486;2.766;2022-07-12T14:42:41;1.63;;;1.30;;
46971;SDS011;32722;43.486;2.766;2022-07-12T14:45:09;4.35;;;1.63;;
46971;SDS011;32722;43.486;2.766;2022-07-12T14:47:35;4.70;;;1.48;;
46971;SDS011;32722;43.486;2.766;2022-07-12T14:50:01;1.23;;;1.05;;
46971;SDS011;32722;43.486;2.766;2022-07-12T14:52:30;2.83;;;1.50;;
46971;SDS011;32722;43.486;2.766;2022-07-12T14:54:56;2.53;;;1.10;;
46971;SDS011;32722;43.486;2.766;2022-07-12T14:57:22;3.03;;;1.38;;
46971;SDS011;32722;43.486;2.766;2022-07-12T14:59:48;4.75;;;1.33;;
46971;SDS011;32722;43.486;2.766;2022-07-12T15:02:14;1.55;;;1.02;;
46971;SDS011;32722;43.486;2.766;2022-07-12T15:04:42;2.60;;;1.27;;
46971;SDS011;32722;43.486;2.766;2022-07-12T15:07:08;3.55;;;1.63;;
46971;SDS011;32722;43.486;2.766;2022-07-12T15:09:34;4.50;;;1.60;;
46971;SDS011;32722;43.486;2.766;2022-07-12T15:12:00;3.17;;;1.63;;
46971;SDS011;32722;43.486;2.766;2022-07-12T15:14:26;2.15;;;1.15;;
46971;SDS011;32722;43.486;2.766;2022-07-12T15:16:53;3.15;;;1.30;;
46971;SDS011;32722;43.486;2.766;2022-07-12T15:19:19;1.48;;;1.20;;